• Join FlightAware (Why Join?)
  • Login
  • US Flag 
06:36AM EDT


 

Airport Tracker/Info


-or-


 

Live Flight TrackerFlight Track Log ✈ EGF3681 ✈ 26-Jun-2013 ✈ KORD - KDAY

Flight Track Log - Related Links

Times and Time Zones

All times are in EDT time to prevent confusion due to time zone crossing. See the EGF3681 flight status page for this flight to view local times or setup timezone preferences in your user account.

Time Position Orientation Groundspeed Altitude Reporting Facility
EDT Latitude Longitude Course Direction KTS MPH feet Rate Location/Type
12:16AM 42.0167 -87.9667 95° East 186 214 2,400  Level Chicago TRACON
12:17AM 42.0667 -87.9333 26° Northeast 220 253 4,200 1,980 Climbing Chicago TRACON
12:18AM 41.9660 -87.5267 98° East  Level FlightAware Approximate
12:18AM 42.1000 -87.8833 48° Northeast 234 269 6,300  Level Chicago TRACON
12:19AM 41.9537 -87.4034 98° East  Level FlightAware Approximate
12:19AM 42.1106 -87.8217 77° East 252 290 7,100  Level Chicago Center
12:20AM 41.9439 -87.2797 95° East  Level FlightAware Approximate
12:20AM 42.0933 -87.7203 103° East 275 316 8,900  Level Chicago Center
12:21AM 41.9350 -87.1559 95° East  Level FlightAware Approximate
12:21AM 42.0686 -87.6103 107° East 300 345 10,600  Level Chicago Center
12:22AM 42.0431 -87.4967 107° East 316 364 12,200 1,440 Climbing Chicago Center
12:23AM 42.0161 -87.3781 107° East 328 377 13,600 1,020 Climbing Chicago Center
12:24AM 41.9878 -87.2503 107° East 351 404 14,300 660 Climbing Chicago Center
12:25AM 41.9572 -87.1147 107° East 374 430 15,000 780 Climbing Chicago Center
12:26AM 41.9439 -86.9700 97° East 389 448 15,900 780 Climbing Chicago Center
12:27AM 41.9483 -86.8211 88° East 397 457 16,700 600 Climbing Chicago Center
12:28AM 41.9508 -86.6547 89° East 406 467 17,200 780 Climbing Chicago Center
12:29AM 41.9531 -86.5000 89° East 414 476 18,300 1,080 Climbing Chicago Center
12:30AM 41.9542 -86.3467 89° East 411 473 19,500 1,620 Climbing Chicago Center
12:31AM 41.9519 -86.1992 91° East 396 456 21,700 1,680 Climbing Chicago Center
12:32AM 41.9114 -86.0678 112° Southeast 382 440 23,000 600 Climbing Chicago Center
12:33AM 41.8253 -85.9733 141° Southeast 405 466 23,000  Level Chicago Center
12:34AM 41.7250 -85.8839 146° Southeast 431 496 23,000  Level Chicago Center
12:35AM 41.6228 -85.7875 145° Southeast 450 518 23,000 -300 Level Chicago Center
12:36AM 41.4967 -85.6700 145° Southeast 467 537 22,500 -540 Descending Chicago Center
12:37AM 41.3925 -85.5717 145° Southeast 468 539 22,000 -300 Descending Chicago Center
12:38AM 41.2889 -85.4728 144° Southeast 465 535 22,000  Level Chicago Center
12:40AM 41.1242 -85.2808 139° Southeast 467 537 22,000 -300 Level Indianapolis Center
12:41AM 41.0383 -85.1508 131° Southeast 468 539 21,300 -960 Descending Indianapolis Center
12:42AM 40.9531 -85.0247 132° Southeast 462 532 20,100 -1,140 Descending Indianapolis Center
12:43AM 40.8689 -84.8981 131° Southeast 445 512 19,100 -1,080 Descending Indianapolis Center
12:44AM 40.7867 -84.7756 132° Southeast 440 506 18,000 -1,020 Descending Indianapolis Center
12:45AM 40.7056 -84.6533 131° Southeast 440 506 17,100 -960 Descending Indianapolis Center
12:46AM 40.6256 -84.5367 132° Southeast 431 496 16,100 -1,020 Descending Indianapolis Center
12:46AM 40.5711 -84.4558 132° Southeast 408 470 15,400 -1,140 Descending Indianapolis Center
12:47AM 40.4961 -84.3467 132° Southeast 396 456 14,200 -1,200 Descending Indianapolis Center
12:48AM 40.4092 -84.2800 150° Southeast 404 465 13,200 -1,440 Descending Indianapolis Center
12:49AM 40.2936 -84.2042 153° Southeast 401 461 11,400 -1,500 Descending Indianapolis Center
12:50AM 40.2097 -84.1494 154° Southeast 317 365 10,100 -1,740 Descending Indianapolis Center
12:51AM 40.1381 -84.1017 153° Southeast 272 313 7,900 -2,400 Descending Indianapolis Center
12:52AM 40.0703 -84.0572 153° Southeast 269 310 5,300 -2,160 Descending Indianapolis Center
12:53AM 40.0083 -84.0464 172° South 228 262 3,600 -1,740 Descending Indianapolis Center